sensor_id;sensor_type;location;lat;lon;timestamp;P1;durP1;ratioP1;P2;durP2;ratioP2
25972;SDS011;13765;51.166;4.466;2023-06-22T00:02:21;13.85;;;5.63;;
25972;SDS011;13765;51.166;4.466;2023-06-22T00:04:46;14.10;;;5.10;;
25972;SDS011;13765;51.166;4.466;2023-06-22T00:07:14;13.88;;;4.85;;
25972;SDS011;13765;51.166;4.466;2023-06-22T00:09:40;12.82;;;4.75;;
25972;SDS011;13765;51.166;4.466;2023-06-22T00:12:06;11.35;;;4.47;;
25972;SDS011;13765;51.166;4.466;2023-06-22T00:14:34;13.48;;;4.93;;
25972;SDS011;13765;51.166;4.466;2023-06-22T00:17:00;15.65;;;4.80;;
25972;SDS011;13765;51.166;4.466;2023-06-22T00:19:25;12.85;;;4.97;;
25972;SDS011;13765;51.166;4.466;2023-06-22T00:21:51;11.77;;;4.40;;
25972;SDS011;13765;51.166;4.466;2023-06-22T00:24:25;10.63;;;4.03;;
25972;SDS011;13765;51.166;4.466;2023-06-22T00:26:50;11.93;;;4.22;;
25972;SDS011;13765;51.166;4.466;2023-06-22T00:29:16;11.52;;;4.00;;
25972;SDS011;13765;51.166;4.466;2023-06-22T00:31:43;12.23;;;4.63;;
25972;SDS011;13765;51.166;4.466;2023-06-22T00:34:09;18.05;;;5.45;;
25972;SDS011;13765;51.166;4.466;2023-06-22T00:36:35;12.07;;;4.68;;
25972;SDS011;13765;51.166;4.466;2023-06-22T00:39:01;10.23;;;4.32;;
25972;SDS011;13765;51.166;4.466;2023-06-22T00:41:26;14.38;;;5.18;;
25972;SDS011;13765;51.166;4.466;2023-06-22T00:43:55;11.88;;;4.30;;
25972;SDS011;13765;51.166;4.466;2023-06-22T00:46:21;12.45;;;4.60;;
25972;SDS011;13765;51.166;4.466;2023-06-22T00:48:48;13.98;;;5.13;;
25972;SDS011;13765;51.166;4.466;2023-06-22T00:51:16;14.38;;;4.82;;
25972;SDS011;13765;51.166;4.466;2023-06-22T00:53:44;16.52;;;5.38;;
25972;SDS011;13765;51.166;4.466;2023-06-22T00:56:10;12.75;;;5.03;;
25972;SDS011;13765;51.166;4.466;2023-06-22T00:58:37;12.13;;;4.40;;
25972;SDS011;13765;51.166;4.466;2023-06-22T01:01:06;15.07;;;4.90;;
25972;SDS011;13765;51.166;4.466;2023-06-22T01:03:32;11.82;;;4.55;;
25972;SDS011;13765;51.166;4.466;2023-06-22T01:06:01;13.40;;;4.60;;
25972;SDS011;13765;51.166;4.466;2023-06-22T01:11:37;13.40;;;5.22;;
25972;SDS011;13765;51.166;4.466;2023-06-22T01:14:20;11.23;;;4.50;;
25972;SDS011;13765;51.166;4.466;2023-06-22T01:17:02;12.90;;;5.10;;
25972;SDS011;13765;51.166;4.466;2023-06-22T01:19:53;9.85;;;4.25;;
25972;SDS011;13765;51.166;4.466;2023-06-22T01:22:23;12.82;;;4.45;;
25972;SDS011;13765;51.166;4.466;2023-06-22T01:30:40;15.23;;;4.78;;
25972;SDS011;13765;51.166;4.466;2023-06-22T01:33:09;14.02;;;4.78;;
25972;SDS011;13765;51.166;4.466;2023-06-22T01:35:38;12.52;;;4.72;;
25972;SDS011;13765;51.166;4.466;2023-06-22T01:38:04;11.68;;;4.93;;
25972;SDS011;13765;51.166;4.466;2023-06-22T01:40:30;17.02;;;5.60;;
25972;SDS011;13765;51.166;4.466;2023-06-22T01:42:58;14.45;;;5.10;;
25972;SDS011;13765;51.166;4.466;2023-06-22T01:45:28;12.02;;;4.90;;
25972;SDS011;13765;51.166;4.466;2023-06-22T01:47:54;13.57;;;5.13;;
25972;SDS011;13765;51.166;4.466;2023-06-22T01:50:20;11.82;;;5.03;;
25972;SDS011;13765;51.166;4.466;2023-06-22T01:52:46;15.13;;;5.00;;
25972;SDS011;13765;51.166;4.466;2023-06-22T01:55:12;12.77;;;5.10;;
25972;SDS011;13765;51.166;4.466;2023-06-22T01:57:38;13.70;;;4.65;;
25972;SDS011;13765;51.166;4.466;2023-06-22T02:00:09;13.82;;;5.25;;
25972;SDS011;13765;51.166;4.466;2023-06-22T02:05:45;13.75;;;4.68;;
25972;SDS011;13765;51.166;4.466;2023-06-22T02:08:19;14.38;;;5.38;;
25972;SDS011;13765;51.166;4.466;2023-06-22T02:10:48;14.88;;;5.38;;
25972;SDS011;13765;51.166;4.466;2023-06-22T02:13:15;14.23;;;5.25;;
25972;SDS011;13765;51.166;4.466;2023-06-22T02:15:42;14.70;;;5.72;;
25972;SDS011;13765;51.166;4.466;2023-06-22T02:18:10;14.90;;;5.75;;
25972;SDS011;13765;51.166;4.466;2023-06-22T02:20:37;16.13;;;5.60;;
25972;SDS011;13765;51.166;4.466;2023-06-22T02:23:03;15.88;;;5.57;;
25972;SDS011;13765;51.166;4.466;2023-06-22T02:25:29;15.80;;;6.05;;
25972;SDS011;13765;51.166;4.466;2023-06-22T02:27:55;16.67;;;5.40;;
25972;SDS011;13765;51.166;4.466;2023-06-22T02:30:20;15.90;;;5.85;;
25972;SDS011;13765;51.166;4.466;2023-06-22T02:32:46;13.15;;;5.47;;
25972;SDS011;13765;51.166;4.466;2023-06-22T02:35:12;15.63;;;6.30;;
25972;SDS011;13765;51.166;4.466;2023-06-22T02:37:38;13.10;;;4.93;;
25972;SDS011;13765;51.166;4.466;2023-06-22T02:40:06;14.88;;;5.57;;
25972;SDS011;13765;51.166;4.466;2023-06-22T02:42:34;14.75;;;5.82;;
25972;SDS011;13765;51.166;4.466;2023-06-22T02:45:03;17.02;;;6.03;;
25972;SDS011;13765;51.166;4.466;2023-06-22T02:47:28;18.33;;;6.75;;
25972;SDS011;13765;51.166;4.466;2023-06-22T02:49:54;17.75;;;5.82;;
25972;SDS011;13765;51.166;4.466;2023-06-22T02:52:20;16.75;;;6.68;;
25972;SDS011;13765;51.166;4.466;2023-06-22T02:54:48;16.42;;;6.38;;
25972;SDS011;13765;51.166;4.466;2023-06-22T02:57:13;17.23;;;6.05;;
25972;SDS011;13765;51.166;4.466;2023-06-22T02:59:39;17.83;;;7.18;;
25972;SDS011;13765;51.166;4.466;2023-06-22T03:02:06;16.08;;;6.35;;
25972;SDS011;13765;51.166;4.466;2023-06-22T03:04:34;16.83;;;6.65;;
25972;SDS011;13765;51.166;4.466;2023-06-22T03:06:59;17.10;;;6.82;;
25972;SDS011;13765;51.166;4.466;2023-06-22T03:09:26;15.77;;;5.78;;
25972;SDS011;13765;51.166;4.466;2023-06-22T03:11:55;18.88;;;6.80;;
25972;SDS011;13765;51.166;4.466;2023-06-22T03:14:21;17.77;;;7.22;;
25972;SDS011;13765;51.166;4.466;2023-06-22T03:16:47;16.05;;;6.82;;
25972;SDS011;13765;51.166;4.466;2023-06-22T03:19:12;17.35;;;7.43;;
25972;SDS011;13765;51.166;4.466;2023-06-22T03:21:39;17.52;;;7.90;;
25972;SDS011;13765;51.166;4.466;2023-06-22T03:24:05;20.15;;;8.38;;
25972;SDS011;13765;51.166;4.466;2023-06-22T03:26:31;17.95;;;7.85;;
25972;SDS011;13765;51.166;4.466;2023-06-22T03:28:59;18.50;;;7.07;;
25972;SDS011;13765;51.166;4.466;2023-06-22T03:31:25;19.38;;;7.57;;
25972;SDS011;13765;51.166;4.466;2023-06-22T03:33:53;18.00;;;7.60;;
25972;SDS011;13765;51.166;4.466;2023-06-22T03:36:19;20.40;;;7.55;;
25972;SDS011;13765;51.166;4.466;2023-06-22T03:38:45;19.88;;;8.60;;
25972;SDS011;13765;51.166;4.466;2023-06-22T03:41:15;18.55;;;8.13;;
25972;SDS011;13765;51.166;4.466;2023-06-22T03:43:41;19.95;;;8.32;;
25972;SDS011;13765;51.166;4.466;2023-06-22T03:46:07;21.92;;;9.65;;
25972;SDS011;13765;51.166;4.466;2023-06-22T03:48:35;20.85;;;8.20;;
25972;SDS011;13765;51.166;4.466;2023-06-22T03:51:01;20.52;;;8.57;;
25972;SDS011;13765;51.166;4.466;2023-06-22T03:53:28;21.70;;;8.98;;
25972;SDS011;13765;51.166;4.466;2023-06-22T03:55:54;22.65;;;9.02;;
25972;SDS011;13765;51.166;4.466;2023-06-22T03:58:20;21.73;;;9.32;;
25972;SDS011;13765;51.166;4.466;2023-06-22T04:00:46;19.35;;;8.57;;
25972;SDS011;13765;51.166;4.466;2023-06-22T04:03:13;22.98;;;9.75;;
25972;SDS011;13765;51.166;4.466;2023-06-22T04:05:39;20.33;;;8.68;;
25972;SDS011;13765;51.166;4.466;2023-06-22T04:08:05;20.80;;;9.95;;
25972;SDS011;13765;51.166;4.466;2023-06-22T04:10:33;21.90;;;10.15;;
25972;SDS011;13765;51.166;4.466;2023-06-22T04:12:59;23.58;;;10.90;;
25972;SDS011;13765;51.166;4.466;2023-06-22T04:15:25;22.85;;;11.00;;
25972;SDS011;13765;51.166;4.466;2023-06-22T04:17:54;22.13;;;9.93;;
25972;SDS011;13765;51.166;4.466;2023-06-22T04:20:20;23.15;;;10.70;;
25972;SDS011;13765;51.166;4.466;2023-06-22T04:22:46;22.08;;;10.52;;
25972;SDS011;13765;51.166;4.466;2023-06-22T04:25:12;27.20;;;11.60;;
25972;SDS011;13765;51.166;4.466;2023-06-22T04:27:37;22.80;;;11.20;;
25972;SDS011;13765;51.166;4.466;2023-06-22T04:30:05;23.25;;;11.30;;
25972;SDS011;13765;51.166;4.466;2023-06-22T04:32:33;21.75;;;9.88;;
25972;SDS011;13765;51.166;4.466;2023-06-22T04:35:03;24.20;;;11.48;;
25972;SDS011;13765;51.166;4.466;2023-06-22T04:37:34;23.90;;;11.65;;
25972;SDS011;13765;51.166;4.466;2023-06-22T04:40:00;29.23;;;13.70;;
25972;SDS011;13765;51.166;4.466;2023-06-22T04:42:26;23.42;;;11.38;;
25972;SDS011;13765;51.166;4.466;2023-06-22T04:44:55;24.23;;;11.38;;
25972;SDS011;13765;51.166;4.466;2023-06-22T04:47:21;24.88;;;12.85;;
25972;SDS011;13765;51.166;4.466;2023-06-22T04:49:46;24.88;;;12.57;;
25972;SDS011;13765;51.166;4.466;2023-06-22T04:52:12;25.15;;;12.57;;
25972;SDS011;13765;51.166;4.466;2023-06-22T04:54:40;27.58;;;13.82;;
25972;SDS011;13765;51.166;4.466;2023-06-22T04:57:13;25.60;;;12.80;;
25972;SDS011;13765;51.166;4.466;2023-06-22T04:59:39;25.27;;;13.07;;
25972;SDS011;13765;51.166;4.466;2023-06-22T05:02:06;26.27;;;13.57;;
25972;SDS011;13765;51.166;4.466;2023-06-22T05:04:36;29.05;;;14.07;;
25972;SDS011;13765;51.166;4.466;2023-06-22T05:07:03;28.52;;;14.15;;
25972;SDS011;13765;51.166;4.466;2023-06-22T05:09:32;27.25;;;14.40;;
25972;SDS011;13765;51.166;4.466;2023-06-22T05:12:00;26.73;;;13.80;;
25972;SDS011;13765;51.166;4.466;2023-06-22T05:14:27;25.35;;;13.27;;
25972;SDS011;13765;51.166;4.466;2023-06-22T05:16:54;26.55;;;14.15;;
25972;SDS011;13765;51.166;4.466;2023-06-22T05:19:23;24.55;;;13.73;;
25972;SDS011;13765;51.166;4.466;2023-06-22T05:21:56;25.33;;;13.95;;
25972;SDS011;13765;51.166;4.466;2023-06-22T05:24:26;27.10;;;15.65;;
25972;SDS011;13765;51.166;4.466;2023-06-22T05:26:52;28.92;;;15.05;;
25972;SDS011;13765;51.166;4.466;2023-06-22T05:29:18;30.73;;;14.75;;
25972;SDS011;13765;51.166;4.466;2023-06-22T05:31:43;26.70;;;14.35;;
25972;SDS011;13765;51.166;4.466;2023-06-22T05:34:09;28.52;;;15.05;;
25972;SDS011;13765;51.166;4.466;2023-06-22T05:36:34;26.70;;;14.50;;
25972;SDS011;13765;51.166;4.466;2023-06-22T05:39:00;27.75;;;16.13;;
25972;SDS011;13765;51.166;4.466;2023-06-22T05:41:38;25.17;;;13.63;;
25972;SDS011;13765;51.166;4.466;2023-06-22T05:44:04;27.23;;;14.93;;
25972;SDS011;13765;51.166;4.466;2023-06-22T05:46:29;25.13;;;14.30;;
25972;SDS011;13765;51.166;4.466;2023-06-22T05:48:55;26.55;;;13.82;;
25972;SDS011;13765;51.166;4.466;2023-06-22T05:51:23;25.60;;;14.55;;
25972;SDS011;13765;51.166;4.466;2023-06-22T05:53:48;25.27;;;13.98;;
25972;SDS011;13765;51.166;4.466;2023-06-22T05:56:22;23.27;;;12.82;;
25972;SDS011;13765;51.166;4.466;2023-06-22T05:58:47;24.40;;;12.80;;
25972;SDS011;13765;51.166;4.466;2023-06-22T06:01:13;25.55;;;12.88;;
25972;SDS011;13765;51.166;4.466;2023-06-22T06:03:43;25.40;;;13.40;;
25972;SDS011;13765;51.166;4.466;2023-06-22T06:06:11;26.92;;;13.77;;
25972;SDS011;13765;51.166;4.466;2023-06-22T06:08:37;27.75;;;14.95;;
25972;SDS011;13765;51.166;4.466;2023-06-22T06:11:03;25.02;;;14.07;;
25972;SDS011;13765;51.166;4.466;2023-06-22T06:13:29;26.50;;;15.10;;
25972;SDS011;13765;51.166;4.466;2023-06-22T06:15:55;22.08;;;13.05;;
25972;SDS011;13765;51.166;4.466;2023-06-22T06:18:22;24.42;;;13.85;;
25972;SDS011;13765;51.166;4.466;2023-06-22T06:20:47;24.45;;;14.23;;
25972;SDS011;13765;51.166;4.466;2023-06-22T06:23:13;24.00;;;13.82;;
25972;SDS011;13765;51.166;4.466;2023-06-22T06:25:39;25.80;;;13.05;;
25972;SDS011;13765;51.166;4.466;2023-06-22T06:28:05;23.33;;;14.45;;
25972;SDS011;13765;51.166;4.466;2023-06-22T06:30:31;27.35;;;14.57;;
25972;SDS011;13765;51.166;4.466;2023-06-22T06:32:57;23.70;;;12.98;;
25972;SDS011;13765;51.166;4.466;2023-06-22T06:35:22;25.65;;;13.80;;
25972;SDS011;13765;51.166;4.466;2023-06-22T06:37:49;24.55;;;13.43;;
25972;SDS011;13765;51.166;4.466;2023-06-22T06:40:16;23.30;;;12.25;;
25972;SDS011;13765;51.166;4.466;2023-06-22T06:42:43;25.15;;;13.13;;
25972;SDS011;13765;51.166;4.466;2023-06-22T06:45:11;23.90;;;13.55;;
25972;SDS011;13765;51.166;4.466;2023-06-22T06:47:38;29.35;;;14.07;;
25972;SDS011;13765;51.166;4.466;2023-06-22T06:50:04;24.92;;;14.27;;
25972;SDS011;13765;51.166;4.466;2023-06-22T06:52:31;24.88;;;12.90;;
25972;SDS011;13765;51.166;4.466;2023-06-22T06:54:56;25.08;;;14.20;;
25972;SDS011;13765;51.166;4.466;2023-06-22T06:57:22;27.45;;;14.48;;
25972;SDS011;13765;51.166;4.466;2023-06-22T06:59:48;26.23;;;15.35;;
25972;SDS011;13765;51.166;4.466;2023-06-22T07:02:15;24.55;;;15.32;;
25972;SDS011;13765;51.166;4.466;2023-06-22T07:04:44;27.80;;;15.18;;
25972;SDS011;13765;51.166;4.466;2023-06-22T07:07:11;25.00;;;14.85;;
25972;SDS011;13765;51.166;4.466;2023-06-22T07:09:37;25.65;;;15.20;;
25972;SDS011;13765;51.166;4.466;2023-06-22T07:12:07;29.08;;;15.10;;
25972;SDS011;13765;51.166;4.466;2023-06-22T07:14:33;26.23;;;15.73;;
25972;SDS011;13765;51.166;4.466;2023-06-22T07:16:58;27.45;;;15.32;;
25972;SDS011;13765;51.166;4.466;2023-06-22T07:19:24;27.92;;;15.43;;
25972;SDS011;13765;51.166;4.466;2023-06-22T07:21:54;28.30;;;15.57;;
25972;SDS011;13765;51.166;4.466;2023-06-22T07:24:20;27.60;;;16.30;;
25972;SDS011;13765;51.166;4.466;2023-06-22T07:26:49;26.63;;;14.63;;
25972;SDS011;13765;51.166;4.466;2023-06-22T07:29:18;29.85;;;15.02;;
25972;SDS011;13765;51.166;4.466;2023-06-22T07:31:47;26.60;;;15.82;;
25972;SDS011;13765;51.166;4.466;2023-06-22T07:34:15;27.73;;;16.67;;
25972;SDS011;13765;51.166;4.466;2023-06-22T07:36:43;30.45;;;17.65;;
25972;SDS011;13765;51.166;4.466;2023-06-22T07:39:10;27.83;;;17.58;;
25972;SDS011;13765;51.166;4.466;2023-06-22T07:41:36;30.35;;;16.75;;
25972;SDS011;13765;51.166;4.466;2023-06-22T07:44:03;30.38;;;17.63;;
25972;SDS011;13765;51.166;4.466;2023-06-22T07:46:29;26.95;;;15.85;;
25972;SDS011;13765;51.166;4.466;2023-06-22T07:48:57;35.45;;;16.80;;
25972;SDS011;13765;51.166;4.466;2023-06-22T07:51:24;26.60;;;15.93;;
25972;SDS011;13765;51.166;4.466;2023-06-22T07:53:50;27.73;;;15.48;;
25972;SDS011;13765;51.166;4.466;2023-06-22T07:56:16;26.40;;;15.52;;
25972;SDS011;13765;51.166;4.466;2023-06-22T07:58:45;25.63;;;14.45;;
25972;SDS011;13765;51.166;4.466;2023-06-22T08:01:12;26.58;;;14.98;;
25972;SDS011;13765;51.166;4.466;2023-06-22T08:03:39;27.13;;;15.50;;
25972;SDS011;13765;51.166;4.466;2023-06-22T08:06:05;27.13;;;15.05;;
25972;SDS011;13765;51.166;4.466;2023-06-22T08:08:31;28.08;;;14.65;;
25972;SDS011;13765;51.166;4.466;2023-06-22T08:10:56;26.25;;;15.50;;
25972;SDS011;13765;51.166;4.466;2023-06-22T08:13:22;27.85;;;15.90;;
25972;SDS011;13765;51.166;4.466;2023-06-22T08:15:48;28.02;;;15.32;;
25972;SDS011;13765;51.166;4.466;2023-06-22T08:18:14;26.42;;;16.08;;
25972;SDS011;13765;51.166;4.466;2023-06-22T08:20:40;24.42;;;14.05;;
25972;SDS011;13765;51.166;4.466;2023-06-22T08:23:05;27.67;;;13.90;;
25972;SDS011;13765;51.166;4.466;2023-06-22T08:25:33;25.17;;;13.48;;
25972;SDS011;13765;51.166;4.466;2023-06-22T08:28:00;24.65;;;12.88;;
25972;SDS011;13765;51.166;4.466;2023-06-22T08:30:29;25.35;;;13.40;;
25972;SDS011;13765;51.166;4.466;2023-06-22T08:32:57;25.10;;;15.07;;
25972;SDS011;13765;51.166;4.466;2023-06-22T08:35:23;27.60;;;15.18;;
25972;SDS011;13765;51.166;4.466;2023-06-22T08:37:49;27.95;;;15.00;;
25972;SDS011;13765;51.166;4.466;2023-06-22T08:40:17;25.77;;;14.93;;
25972;SDS011;13765;51.166;4.466;2023-06-22T08:42:44;26.77;;;14.38;;
25972;SDS011;13765;51.166;4.466;2023-06-22T08:45:11;25.95;;;14.05;;
25972;SDS011;13765;51.166;4.466;2023-06-22T08:47:37;29.20;;;13.95;;
25972;SDS011;13765;51.166;4.466;2023-06-22T08:50:04;24.67;;;12.98;;
25972;SDS011;13765;51.166;4.466;2023-06-22T08:52:31;25.50;;;15.00;;
25972;SDS011;13765;51.166;4.466;2023-06-22T08:54:57;26.50;;;14.48;;
25972;SDS011;13765;51.166;4.466;2023-06-22T08:57:25;25.48;;;14.77;;
25972;SDS011;13765;51.166;4.466;2023-06-22T08:59:55;27.58;;;16.33;;
25972;SDS011;13765;51.166;4.466;2023-06-22T09:02:23;26.40;;;14.85;;
25972;SDS011;13765;51.166;4.466;2023-06-22T09:04:55;26.30;;;15.27;;
25972;SDS011;13765;51.166;4.466;2023-06-22T09:07:24;28.45;;;17.45;;
25972;SDS011;13765;51.166;4.466;2023-06-22T09:09:51;32.22;;;16.02;;
25972;SDS011;13765;51.166;4.466;2023-06-22T09:12:17;27.77;;;16.00;;
25972;SDS011;13765;51.166;4.466;2023-06-22T09:14:45;34.75;;;17.23;;
25972;SDS011;13765;51.166;4.466;2023-06-22T09:17:12;28.00;;;16.05;;
25972;SDS011;13765;51.166;4.466;2023-06-22T09:19:38;29.05;;;15.90;;
25972;SDS011;13765;51.166;4.466;2023-06-22T09:22:04;28.00;;;15.60;;
25972;SDS011;13765;51.166;4.466;2023-06-22T09:24:31;29.10;;;18.13;;
25972;SDS011;13765;51.166;4.466;2023-06-22T09:26:57;28.50;;;16.40;;
25972;SDS011;13765;51.166;4.466;2023-06-22T09:29:25;30.80;;;16.27;;
25972;SDS011;13765;51.166;4.466;2023-06-22T09:31:51;28.10;;;17.38;;
25972;SDS011;13765;51.166;4.466;2023-06-22T09:34:18;28.70;;;17.35;;
25972;SDS011;13765;51.166;4.466;2023-06-22T09:36:47;28.33;;;16.83;;
25972;SDS011;13765;51.166;4.466;2023-06-22T09:39:13;30.65;;;17.80;;
25972;SDS011;13765;51.166;4.466;2023-06-22T09:41:39;29.10;;;16.92;;
25972;SDS011;13765;51.166;4.466;2023-06-22T09:44:04;29.63;;;17.45;;
25972;SDS011;13765;51.166;4.466;2023-06-22T09:46:30;29.63;;;17.88;;
25972;SDS011;13765;51.166;4.466;2023-06-22T09:48:56;33.53;;;15.63;;
25972;SDS011;13765;51.166;4.466;2023-06-22T09:51:22;27.45;;;16.85;;
25972;SDS011;13765;51.166;4.466;2023-06-22T09:53:50;31.10;;;17.35;;
25972;SDS011;13765;51.166;4.466;2023-06-22T09:56:17;29.80;;;17.33;;
25972;SDS011;13765;51.166;4.466;2023-06-22T09:58:43;27.35;;;16.98;;
25972;SDS011;13765;51.166;4.466;2023-06-22T10:01:12;30.75;;;18.63;;
25972;SDS011;13765;51.166;4.466;2023-06-22T10:03:39;30.65;;;18.88;;
25972;SDS011;13765;51.166;4.466;2023-06-22T10:06:06;33.72;;;18.42;;
25972;SDS011;13765;51.166;4.466;2023-06-22T10:08:32;30.95;;;18.02;;
25972;SDS011;13765;51.166;4.466;2023-06-22T10:10:58;30.30;;;17.98;;
25972;SDS011;13765;51.166;4.466;2023-06-22T10:13:23;30.02;;;17.50;;
25972;SDS011;13765;51.166;4.466;2023-06-22T10:15:49;31.75;;;19.35;;
25972;SDS011;13765;51.166;4.466;2023-06-22T10:18:17;29.75;;;18.35;;
25972;SDS011;13765;51.166;4.466;2023-06-22T10:20:43;31.88;;;18.55;;
25972;SDS011;13765;51.166;4.466;2023-06-22T10:23:13;32.72;;;19.70;;
25972;SDS011;13765;51.166;4.466;2023-06-22T10:25:39;29.10;;;19.08;;
25972;SDS011;13765;51.166;4.466;2023-06-22T10:28:07;31.98;;;20.70;;
25972;SDS011;13765;51.166;4.466;2023-06-22T10:30:33;33.92;;;19.40;;
25972;SDS011;13765;51.166;4.466;2023-06-22T10:32:58;33.95;;;20.73;;
25972;SDS011;13765;51.166;4.466;2023-06-22T10:35:27;28.17;;;17.95;;
25972;SDS011;13765;51.166;4.466;2023-06-22T10:37:54;35.10;;;21.98;;
25972;SDS011;13765;51.166;4.466;2023-06-22T10:40:21;31.40;;;20.52;;
25972;SDS011;13765;51.166;4.466;2023-06-22T10:42:46;36.05;;;20.67;;
25972;SDS011;13765;51.166;4.466;2023-06-22T10:45:12;31.33;;;20.70;;
25972;SDS011;13765;51.166;4.466;2023-06-22T10:47:40;31.98;;;20.20;;
25972;SDS011;13765;51.166;4.466;2023-06-22T10:50:09;35.42;;;20.25;;
25972;SDS011;13765;51.166;4.466;2023-06-22T10:52:38;28.02;;;17.80;;
25972;SDS011;13765;51.166;4.466;2023-06-22T10:55:04;29.13;;;17.70;;
25972;SDS011;13765;51.166;4.466;2023-06-22T10:57:30;28.80;;;18.05;;
25972;SDS011;13765;51.166;4.466;2023-06-22T10:59:56;30.95;;;18.60;;
25972;SDS011;13765;51.166;4.466;2023-06-22T11:02:21;31.17;;;18.60;;
25972;SDS011;13765;51.166;4.466;2023-06-22T11:04:48;33.35;;;19.55;;
25972;SDS011;13765;51.166;4.466;2023-06-22T11:07:14;32.88;;;19.65;;
25972;SDS011;13765;51.166;4.466;2023-06-22T11:09:40;37.50;;;23.00;;
25972;SDS011;13765;51.166;4.466;2023-06-22T11:12:07;33.33;;;20.83;;
25972;SDS011;13765;51.166;4.466;2023-06-22T11:14:33;33.20;;;20.63;;
25972;SDS011;13765;51.166;4.466;2023-06-22T11:16:59;33.53;;;20.58;;
25972;SDS011;13765;51.166;4.466;2023-06-22T11:19:27;30.60;;;18.67;;
25972;SDS011;13765;51.166;4.466;2023-06-22T11:21:53;29.10;;;16.85;;
25972;SDS011;13765;51.166;4.466;2023-06-22T11:24:18;31.33;;;19.20;;
25972;SDS011;13765;51.166;4.466;2023-06-22T11:26:44;29.83;;;18.70;;
25972;SDS011;13765;51.166;4.466;2023-06-22T11:29:10;31.58;;;18.50;;
25972;SDS011;13765;51.166;4.466;2023-06-22T11:31:35;29.45;;;18.55;;
25972;SDS011;13765;51.166;4.466;2023-06-22T11:34:01;31.05;;;19.33;;
25972;SDS011;13765;51.166;4.466;2023-06-22T11:36:27;33.63;;;20.05;;
25972;SDS011;13765;51.166;4.466;2023-06-22T11:38:54;32.88;;;18.67;;
25972;SDS011;13765;51.166;4.466;2023-06-22T11:41:22;33.13;;;20.05;;
25972;SDS011;13765;51.166;4.466;2023-06-22T11:43:47;33.67;;;20.83;;
25972;SDS011;13765;51.166;4.466;2023-06-22T11:46:13;33.47;;;20.88;;
25972;SDS011;13765;51.166;4.466;2023-06-22T11:48:39;35.35;;;20.63;;
25972;SDS011;13765;51.166;4.466;2023-06-22T11:51:05;34.15;;;21.15;;
25972;SDS011;13765;51.166;4.466;2023-06-22T11:53:31;37.58;;;22.02;;
25972;SDS011;13765;51.166;4.466;2023-06-22T11:55:57;37.92;;;21.90;;
25972;SDS011;13765;51.166;4.466;2023-06-22T11:58:22;37.08;;;24.38;;
25972;SDS011;13765;51.166;4.466;2023-06-22T12:00:48;36.58;;;22.58;;
25972;SDS011;13765;51.166;4.466;2023-06-22T12:03:15;34.38;;;21.13;;
25972;SDS011;13765;51.166;4.466;2023-06-22T12:05:41;38.53;;;24.70;;
25972;SDS011;13765;51.166;4.466;2023-06-22T12:08:07;35.92;;;22.35;;
25972;SDS011;13765;51.166;4.466;2023-06-22T12:10:33;38.28;;;25.50;;
25972;SDS011;13765;51.166;4.466;2023-06-22T12:12:59;40.92;;;25.92;;
25972;SDS011;13765;51.166;4.466;2023-06-22T12:15:25;36.10;;;24.73;;
25972;SDS011;13765;51.166;4.466;2023-06-22T12:17:51;36.20;;;24.15;;
25972;SDS011;13765;51.166;4.466;2023-06-22T12:20:17;39.83;;;24.50;;
25972;SDS011;13765;51.166;4.466;2023-06-22T12:22:43;39.30;;;23.88;;
25972;SDS011;13765;51.166;4.466;2023-06-22T12:25:09;32.90;;;20.52;;
25972;SDS011;13765;51.166;4.466;2023-06-22T12:27:35;38.05;;;23.23;;
25972;SDS011;13765;51.166;4.466;2023-06-22T12:30:01;35.40;;;21.83;;
25972;SDS011;13765;51.166;4.466;2023-06-22T12:32:27;37.70;;;21.83;;
25972;SDS011;13765;51.166;4.466;2023-06-22T12:34:55;38.55;;;23.50;;
25972;SDS011;13765;51.166;4.466;2023-06-22T12:37:21;36.20;;;22.40;;
25972;SDS011;13765;51.166;4.466;2023-06-22T12:39:47;32.50;;;20.55;;
25972;SDS011;13765;51.166;4.466;2023-06-22T12:42:12;36.97;;;22.20;;
25972;SDS011;13765;51.166;4.466;2023-06-22T12:44:38;32.70;;;20.55;;
25972;SDS011;13765;51.166;4.466;2023-06-22T12:47:05;33.40;;;19.63;;
25972;SDS011;13765;51.166;4.466;2023-06-22T12:49:32;34.45;;;20.20;;
25972;SDS011;13765;51.166;4.466;2023-06-22T12:51:57;36.53;;;21.55;;
25972;SDS011;13765;51.166;4.466;2023-06-22T12:54:23;35.92;;;22.27;;
25972;SDS011;13765;51.166;4.466;2023-06-22T12:56:52;35.97;;;22.30;;
25972;SDS011;13765;51.166;4.466;2023-06-22T13:01:47;39.45;;;23.00;;
25972;SDS011;13765;51.166;4.466;2023-06-22T13:04:13;34.78;;;22.77;;
25972;SDS011;13765;51.166;4.466;2023-06-22T13:06:43;36.58;;;23.13;;
25972;SDS011;13765;51.166;4.466;2023-06-22T13:09:14;41.13;;;25.77;;
25972;SDS011;13765;51.166;4.466;2023-06-22T13:11:41;39.38;;;26.52;;
25972;SDS011;13765;51.166;4.466;2023-06-22T13:14:07;41.17;;;25.60;;
25972;SDS011;13765;51.166;4.466;2023-06-22T13:16:36;43.72;;;26.40;;
25972;SDS011;13765;51.166;4.466;2023-06-22T13:19:01;42.15;;;27.08;;
25972;SDS011;13765;51.166;4.466;2023-06-22T13:21:30;40.72;;;27.35;;
25972;SDS011;13765;51.166;4.466;2023-06-22T13:23:55;44.83;;;28.10;;
25972;SDS011;13765;51.166;4.466;2023-06-22T13:26:21;48.40;;;28.58;;
25972;SDS011;13765;51.166;4.466;2023-06-22T13:28:47;41.97;;;28.75;;
25972;SDS011;13765;51.166;4.466;2023-06-22T13:31:13;46.15;;;29.85;;
25972;SDS011;13765;51.166;4.466;2023-06-22T13:33:38;43.53;;;29.50;;
25972;SDS011;13765;51.166;4.466;2023-06-22T13:36:05;45.00;;;29.00;;
25972;SDS011;13765;51.166;4.466;2023-06-22T13:38:32;45.05;;;30.10;;
25972;SDS011;13765;51.166;4.466;2023-06-22T13:41:01;48.22;;;30.23;;
25972;SDS011;13765;51.166;4.466;2023-06-22T13:43:27;46.47;;;30.38;;
25972;SDS011;13765;51.166;4.466;2023-06-22T13:45:53;46.35;;;31.42;;
25972;SDS011;13765;51.166;4.466;2023-06-22T13:48:18;46.08;;;29.85;;
25972;SDS011;13765;51.166;4.466;2023-06-22T13:50:44;46.45;;;31.23;;
25972;SDS011;13765;51.166;4.466;2023-06-22T13:53:10;47.00;;;30.45;;
25972;SDS011;13765;51.166;4.466;2023-06-22T13:55:35;45.60;;;29.95;;
25972;SDS011;13765;51.166;4.466;2023-06-22T13:58:01;47.38;;;30.33;;
25972;SDS011;13765;51.166;4.466;2023-06-22T14:00:28;48.55;;;31.58;;
25972;SDS011;13765;51.166;4.466;2023-06-22T14:02:54;54.22;;;33.90;;
25972;SDS011;13765;51.166;4.466;2023-06-22T14:05:22;50.78;;;32.15;;
25972;SDS011;13765;51.166;4.466;2023-06-22T14:07:48;47.15;;;31.40;;
25972;SDS011;13765;51.166;4.466;2023-06-22T14:10:13;50.42;;;32.17;;
25972;SDS011;13765;51.166;4.466;2023-06-22T14:12:39;49.78;;;31.73;;
25972;SDS011;13765;51.166;4.466;2023-06-22T14:15:05;49.08;;;33.47;;
25972;SDS011;13765;51.166;4.466;2023-06-22T14:17:31;50.22;;;32.22;;
25972;SDS011;13765;51.166;4.466;2023-06-22T14:19:58;51.53;;;33.53;;
25972;SDS011;13765;51.166;4.466;2023-06-22T14:22:24;49.95;;;32.78;;
25972;SDS011;13765;51.166;4.466;2023-06-22T14:24:52;51.80;;;34.40;;
25972;SDS011;13765;51.166;4.466;2023-06-22T14:27:17;53.03;;;34.10;;
25972;SDS011;13765;51.166;4.466;2023-06-22T14:29:43;48.92;;;33.00;;
25972;SDS011;13765;51.166;4.466;2023-06-22T14:32:09;50.55;;;34.63;;
25972;SDS011;13765;51.166;4.466;2023-06-22T14:34:35;50.72;;;33.58;;
25972;SDS011;13765;51.166;4.466;2023-06-22T14:37:04;48.42;;;33.17;;
25972;SDS011;13765;51.166;4.466;2023-06-22T14:39:34;49.60;;;34.00;;